sensor_id;sensor_type;location;lat;lon;timestamp;P1;durP1;ratioP1;P2;durP2;ratioP2
35961;SDS011;22044;48.298;10.008;2023-03-04T00:01:58;62.27;;;36.47;;
35961;SDS011;22044;48.298;10.008;2023-03-04T00:04:44;62.67;;;36.57;;
35961;SDS011;22044;48.298;10.008;2023-03-04T00:07:29;60.17;;;37.10;;
35961;SDS011;22044;48.298;10.008;2023-03-04T00:10:16;63.07;;;36.73;;
35961;SDS011;22044;48.298;10.008;2023-03-04T00:13:02;62.90;;;36.60;;
35961;SDS011;22044;48.298;10.008;2023-03-04T00:15:47;58.03;;;35.57;;
35961;SDS011;22044;48.298;10.008;2023-03-04T00:18:33;61.97;;;37.23;;
35961;SDS011;22044;48.298;10.008;2023-03-04T00:21:19;62.17;;;36.20;;
35961;SDS011;22044;48.298;10.008;2023-03-04T00:24:06;61.73;;;36.73;;
35961;SDS011;22044;48.298;10.008;2023-03-04T00:26:53;62.93;;;37.90;;
35961;SDS011;22044;48.298;10.008;2023-03-04T00:29:39;69.30;;;39.10;;
35961;SDS011;22044;48.298;10.008;2023-03-04T00:32:25;61.60;;;37.67;;
35961;SDS011;22044;48.298;10.008;2023-03-04T00:35:10;63.67;;;37.77;;
35961;SDS011;22044;48.298;10.008;2023-03-04T00:37:56;60.47;;;36.10;;
35961;SDS011;22044;48.298;10.008;2023-03-04T00:40:42;53.53;;;34.07;;
35961;SDS011;22044;48.298;10.008;2023-03-04T00:43:29;58.37;;;34.23;;
35961;SDS011;22044;48.298;10.008;2023-03-04T00:46:15;61.20;;;35.50;;
35961;SDS011;22044;48.298;10.008;2023-03-04T00:49:01;61.43;;;35.27;;
35961;SDS011;22044;48.298;10.008;2023-03-04T00:51:47;60.77;;;35.20;;
35961;SDS011;22044;48.298;10.008;2023-03-04T00:54:32;63.57;;;35.07;;
35961;SDS011;22044;48.298;10.008;2023-03-04T00:57:18;62.33;;;36.17;;
35961;SDS011;22044;48.298;10.008;2023-03-04T01:00:06;65.40;;;37.37;;
35961;SDS011;22044;48.298;10.008;2023-03-04T01:02:53;64.93;;;37.10;;
35961;SDS011;22044;48.298;10.008;2023-03-04T01:05:39;61.67;;;36.57;;
35961;SDS011;22044;48.298;10.008;2023-03-04T01:08:26;61.17;;;36.97;;
35961;SDS011;22044;48.298;10.008;2023-03-04T01:11:12;69.43;;;38.63;;
35961;SDS011;22044;48.298;10.008;2023-03-04T01:13:57;67.57;;;39.73;;
35961;SDS011;22044;48.298;10.008;2023-03-04T01:16:44;65.33;;;37.87;;
35961;SDS011;22044;48.298;10.008;2023-03-04T01:19:30;61.07;;;36.53;;
35961;SDS011;22044;48.298;10.008;2023-03-04T01:22:16;65.53;;;38.10;;
35961;SDS011;22044;48.298;10.008;2023-03-04T01:25:02;64.63;;;38.33;;
35961;SDS011;22044;48.298;10.008;2023-03-04T01:27:49;65.80;;;38.93;;
35961;SDS011;22044;48.298;10.008;2023-03-04T01:30:36;65.77;;;36.77;;
35961;SDS011;22044;48.298;10.008;2023-03-04T01:33:23;65.40;;;37.87;;
35961;SDS011;22044;48.298;10.008;2023-03-04T01:36:09;64.37;;;40.23;;
35961;SDS011;22044;48.298;10.008;2023-03-04T01:38:54;67.60;;;39.53;;
35961;SDS011;22044;48.298;10.008;2023-03-04T01:41:41;66.57;;;37.87;;
35961;SDS011;22044;48.298;10.008;2023-03-04T01:44:27;66.90;;;39.00;;
35961;SDS011;22044;48.298;10.008;2023-03-04T01:47:13;68.17;;;39.80;;
35961;SDS011;22044;48.298;10.008;2023-03-04T01:50:00;65.17;;;38.50;;
35961;SDS011;22044;48.298;10.008;2023-03-04T01:52:48;65.23;;;39.63;;
35961;SDS011;22044;48.298;10.008;2023-03-04T01:55:34;67.93;;;38.43;;
35961;SDS011;22044;48.298;10.008;2023-03-04T01:58:20;66.70;;;39.77;;
35961;SDS011;22044;48.298;10.008;2023-03-04T02:01:05;63.50;;;38.60;;
35961;SDS011;22044;48.298;10.008;2023-03-04T02:03:51;59.10;;;35.83;;
35961;SDS011;22044;48.298;10.008;2023-03-04T02:06:38;59.53;;;34.50;;
35961;SDS011;22044;48.298;10.008;2023-03-04T02:09:25;54.80;;;33.33;;
35961;SDS011;22044;48.298;10.008;2023-03-04T02:12:11;55.23;;;32.50;;
35961;SDS011;22044;48.298;10.008;2023-03-04T02:14:57;55.67;;;33.67;;
35961;SDS011;22044;48.298;10.008;2023-03-04T02:17:43;58.17;;;34.47;;
35961;SDS011;22044;48.298;10.008;2023-03-04T02:20:34;64.30;;;35.90;;
35961;SDS011;22044;48.298;10.008;2023-03-04T02:23:29;67.17;;;38.13;;
35961;SDS011;22044;48.298;10.008;2023-03-04T02:26:21;65.73;;;37.90;;
35961;SDS011;22044;48.298;10.008;2023-03-04T02:29:10;67.57;;;38.23;;
35961;SDS011;22044;48.298;10.008;2023-03-04T02:31:58;64.93;;;37.73;;
35961;SDS011;22044;48.298;10.008;2023-03-04T02:34:44;64.60;;;36.40;;
35961;SDS011;22044;48.298;10.008;2023-03-04T02:37:32;64.93;;;39.20;;
35961;SDS011;22044;48.298;10.008;2023-03-04T02:40:20;66.23;;;39.50;;
35961;SDS011;22044;48.298;10.008;2023-03-04T02:43:09;65.00;;;38.83;;
35961;SDS011;22044;48.298;10.008;2023-03-04T02:45:55;66.27;;;38.30;;
35961;SDS011;22044;48.298;10.008;2023-03-04T02:48:41;65.97;;;38.57;;
35961;SDS011;22044;48.298;10.008;2023-03-04T02:51:26;61.63;;;35.93;;
35961;SDS011;22044;48.298;10.008;2023-03-04T02:54:16;59.57;;;36.10;;
35961;SDS011;22044;48.298;10.008;2023-03-04T02:57:04;56.57;;;33.90;;
35961;SDS011;22044;48.298;10.008;2023-03-04T02:59:54;58.17;;;33.93;;
35961;SDS011;22044;48.298;10.008;2023-03-04T03:02:42;58.77;;;35.07;;
35961;SDS011;22044;48.298;10.008;2023-03-04T03:05:28;60.43;;;36.20;;
35961;SDS011;22044;48.298;10.008;2023-03-04T03:08:15;62.37;;;36.50;;
35961;SDS011;22044;48.298;10.008;2023-03-04T03:11:01;64.37;;;37.57;;
35961;SDS011;22044;48.298;10.008;2023-03-04T03:13:49;60.43;;;36.60;;
35961;SDS011;22044;48.298;10.008;2023-03-04T03:16:36;64.07;;;36.73;;
35961;SDS011;22044;48.298;10.008;2023-03-04T03:19:22;58.90;;;36.33;;
35961;SDS011;22044;48.298;10.008;2023-03-04T03:22:09;59.27;;;35.50;;
35961;SDS011;22044;48.298;10.008;2023-03-04T03:24:55;62.43;;;36.30;;
35961;SDS011;22044;48.298;10.008;2023-03-04T03:27:43;62.57;;;36.70;;
35961;SDS011;22044;48.298;10.008;2023-03-04T03:30:30;59.90;;;36.10;;
35961;SDS011;22044;48.298;10.008;2023-03-04T03:33:17;65.50;;;37.13;;
35961;SDS011;22044;48.298;10.008;2023-03-04T03:36:03;63.00;;;36.10;;
35961;SDS011;22044;48.298;10.008;2023-03-04T03:38:50;62.70;;;36.40;;
35961;SDS011;22044;48.298;10.008;2023-03-04T03:41:35;60.30;;;35.67;;
35961;SDS011;22044;48.298;10.008;2023-03-04T03:44:21;63.07;;;34.77;;
35961;SDS011;22044;48.298;10.008;2023-03-04T03:47:07;56.87;;;34.23;;
35961;SDS011;22044;48.298;10.008;2023-03-04T03:49:54;57.17;;;33.60;;
35961;SDS011;22044;48.298;10.008;2023-03-04T03:52:39;54.80;;;33.13;;
35961;SDS011;22044;48.298;10.008;2023-03-04T03:55:25;58.50;;;34.93;;
35961;SDS011;22044;48.298;10.008;2023-03-04T03:58:10;60.83;;;35.00;;
35961;SDS011;22044;48.298;10.008;2023-03-04T04:00:56;59.20;;;34.53;;
35961;SDS011;22044;48.298;10.008;2023-03-04T04:03:42;58.47;;;35.33;;
35961;SDS011;22044;48.298;10.008;2023-03-04T04:06:30;66.83;;;36.83;;
35961;SDS011;22044;48.298;10.008;2023-03-04T04:09:15;61.03;;;37.40;;
35961;SDS011;22044;48.298;10.008;2023-03-04T04:12:03;63.27;;;36.40;;
35961;SDS011;22044;48.298;10.008;2023-03-04T04:14:49;63.57;;;38.70;;
35961;SDS011;22044;48.298;10.008;2023-03-04T04:17:35;68.10;;;39.60;;
35961;SDS011;22044;48.298;10.008;2023-03-04T04:20:20;66.17;;;38.40;;
35961;SDS011;22044;48.298;10.008;2023-03-04T04:23:08;71.10;;;41.90;;
35961;SDS011;22044;48.298;10.008;2023-03-04T04:25:53;73.55;;;45.22;;
35961;SDS011;22044;48.298;10.008;2023-03-04T04:28:39;72.60;;;41.20;;
35961;SDS011;22044;48.298;10.008;2023-03-04T04:31:25;68.23;;;39.47;;
35961;SDS011;22044;48.298;10.008;2023-03-04T04:34:11;71.60;;;39.57;;
35961;SDS011;22044;48.298;10.008;2023-03-04T04:36:56;71.63;;;41.13;;
35961;SDS011;22044;48.298;10.008;2023-03-04T04:39:43;72.27;;;40.03;;
35961;SDS011;22044;48.298;10.008;2023-03-04T04:42:29;67.17;;;39.80;;
35961;SDS011;22044;48.298;10.008;2023-03-04T04:45:14;63.83;;;39.43;;
35961;SDS011;22044;48.298;10.008;2023-03-04T04:48:00;69.03;;;39.77;;
35961;SDS011;22044;48.298;10.008;2023-03-04T04:50:46;69.63;;;39.57;;
35961;SDS011;22044;48.298;10.008;2023-03-04T04:53:37;61.57;;;37.57;;
35961;SDS011;22044;48.298;10.008;2023-03-04T04:56:24;63.37;;;37.73;;
35961;SDS011;22044;48.298;10.008;2023-03-04T04:59:11;65.50;;;38.47;;
35961;SDS011;22044;48.298;10.008;2023-03-04T05:01:56;66.37;;;37.80;;
35961;SDS011;22044;48.298;10.008;2023-03-04T05:04:42;59.63;;;37.17;;
35961;SDS011;22044;48.298;10.008;2023-03-04T05:07:27;63.20;;;36.30;;
35961;SDS011;22044;48.298;10.008;2023-03-04T05:10:13;60.23;;;35.77;;
35961;SDS011;22044;48.298;10.008;2023-03-04T05:12:59;60.87;;;36.73;;
35961;SDS011;22044;48.298;10.008;2023-03-04T05:15:45;63.67;;;38.63;;
35961;SDS011;22044;48.298;10.008;2023-03-04T05:18:31;70.60;;;39.50;;
35961;SDS011;22044;48.298;10.008;2023-03-04T05:21:17;68.27;;;40.07;;
35961;SDS011;22044;48.298;10.008;2023-03-04T05:24:03;67.10;;;39.73;;
35961;SDS011;22044;48.298;10.008;2023-03-04T05:26:48;69.63;;;41.63;;
35961;SDS011;22044;48.298;10.008;2023-03-04T05:29:36;70.40;;;40.30;;
35961;SDS011;22044;48.298;10.008;2023-03-04T05:32:21;62.37;;;37.20;;
35961;SDS011;22044;48.298;10.008;2023-03-04T05:35:07;62.03;;;38.17;;
35961;SDS011;22044;48.298;10.008;2023-03-04T05:37:53;65.60;;;38.63;;
35961;SDS011;22044;48.298;10.008;2023-03-04T05:40:39;65.33;;;37.87;;
35961;SDS011;22044;48.298;10.008;2023-03-04T05:43:25;64.60;;;37.67;;
35961;SDS011;22044;48.298;10.008;2023-03-04T05:46:13;69.60;;;40.10;;
35961;SDS011;22044;48.298;10.008;2023-03-04T05:48:59;65.67;;;38.47;;
35961;SDS011;22044;48.298;10.008;2023-03-04T05:51:45;71.03;;;39.97;;
35961;SDS011;22044;48.298;10.008;2023-03-04T05:54:31;70.40;;;38.77;;
35961;SDS011;22044;48.298;10.008;2023-03-04T05:57:16;69.33;;;39.83;;
35961;SDS011;22044;48.298;10.008;2023-03-04T06:00:03;69.23;;;41.17;;
35961;SDS011;22044;48.298;10.008;2023-03-04T06:02:57;75.60;;;42.17;;
35961;SDS011;22044;48.298;10.008;2023-03-04T06:05:43;67.93;;;41.70;;
35961;SDS011;22044;48.298;10.008;2023-03-04T06:08:28;75.30;;;42.23;;
35961;SDS011;22044;48.298;10.008;2023-03-04T06:11:14;69.27;;;41.17;;
35961;SDS011;22044;48.298;10.008;2023-03-04T06:14:00;70.97;;;40.23;;
35961;SDS011;22044;48.298;10.008;2023-03-04T06:16:46;69.00;;;40.60;;
35961;SDS011;22044;48.298;10.008;2023-03-04T06:19:33;72.70;;;40.83;;
35961;SDS011;22044;48.298;10.008;2023-03-04T06:22:20;69.80;;;40.70;;
35961;SDS011;22044;48.298;10.008;2023-03-04T06:25:08;68.20;;;39.07;;
35961;SDS011;22044;48.298;10.008;2023-03-04T06:27:54;77.50;;;42.87;;
35961;SDS011;22044;48.298;10.008;2023-03-04T06:30:39;73.00;;;41.73;;
35961;SDS011;22044;48.298;10.008;2023-03-04T06:33:25;76.73;;;44.53;;
35961;SDS011;22044;48.298;10.008;2023-03-04T06:36:12;76.53;;;45.83;;
35961;SDS011;22044;48.298;10.008;2023-03-04T06:38:57;86.93;;;46.83;;
35961;SDS011;22044;48.298;10.008;2023-03-04T06:41:43;83.00;;;44.43;;
35961;SDS011;22044;48.298;10.008;2023-03-04T06:44:29;85.93;;;47.40;;
35961;SDS011;22044;48.298;10.008;2023-03-04T06:47:14;90.17;;;47.80;;
35961;SDS011;22044;48.298;10.008;2023-03-04T06:50:01;81.57;;;45.37;;
35961;SDS011;22044;48.298;10.008;2023-03-04T06:52:49;86.87;;;46.23;;
35961;SDS011;22044;48.298;10.008;2023-03-04T06:55:34;85.30;;;47.10;;
35961;SDS011;22044;48.298;10.008;2023-03-04T06:58:20;93.03;;;48.43;;
35961;SDS011;22044;48.298;10.008;2023-03-04T07:01:12;87.90;;;47.07;;
35961;SDS011;22044;48.298;10.008;2023-03-04T07:03:59;81.23;;;47.27;;
35961;SDS011;22044;48.298;10.008;2023-03-04T07:06:45;85.63;;;48.37;;
35961;SDS011;22044;48.298;10.008;2023-03-04T07:09:32;85.97;;;46.80;;
35961;SDS011;22044;48.298;10.008;2023-03-04T07:12:17;81.50;;;46.80;;
35961;SDS011;22044;48.298;10.008;2023-03-04T07:15:03;83.53;;;47.70;;
35961;SDS011;22044;48.298;10.008;2023-03-04T07:17:49;84.93;;;46.77;;
35961;SDS011;22044;48.298;10.008;2023-03-04T07:20:35;83.47;;;47.33;;
35961;SDS011;22044;48.298;10.008;2023-03-04T07:23:21;93.67;;;51.73;;
35961;SDS011;22044;48.298;10.008;2023-03-04T07:26:07;81.13;;;49.07;;
35961;SDS011;22044;48.298;10.008;2023-03-04T07:28:53;81.37;;;47.93;;
35961;SDS011;22044;48.298;10.008;2023-03-04T07:31:41;82.77;;;47.07;;
35961;SDS011;22044;48.298;10.008;2023-03-04T07:34:26;80.67;;;46.77;;
35961;SDS011;22044;48.298;10.008;2023-03-04T07:37:12;84.77;;;47.10;;
35961;SDS011;22044;48.298;10.008;2023-03-04T07:39:57;74.53;;;46.57;;
35961;SDS011;22044;48.298;10.008;2023-03-04T07:42:47;80.17;;;46.37;;
35961;SDS011;22044;48.298;10.008;2023-03-04T07:45:34;77.23;;;46.40;;
35961;SDS011;22044;48.298;10.008;2023-03-04T07:48:20;84.63;;;49.47;;
35961;SDS011;22044;48.298;10.008;2023-03-04T07:51:07;74.97;;;43.57;;
35961;SDS011;22044;48.298;10.008;2023-03-04T07:53:55;78.40;;;44.63;;
35961;SDS011;22044;48.298;10.008;2023-03-04T07:56:42;72.97;;;44.37;;
35961;SDS011;22044;48.298;10.008;2023-03-04T07:59:29;66.47;;;41.27;;
35961;SDS011;22044;48.298;10.008;2023-03-04T08:02:14;67.23;;;43.03;;
35961;SDS011;22044;48.298;10.008;2023-03-04T08:05:00;69.70;;;43.37;;
35961;SDS011;22044;48.298;10.008;2023-03-04T08:07:46;65.37;;;40.60;;
35961;SDS011;22044;48.298;10.008;2023-03-04T08:10:32;72.33;;;43.47;;
35961;SDS011;22044;48.298;10.008;2023-03-04T08:13:17;72.07;;;43.10;;
35961;SDS011;22044;48.298;10.008;2023-03-04T08:16:05;70.30;;;43.10;;
35961;SDS011;22044;48.298;10.008;2023-03-04T08:18:51;68.03;;;42.10;;
35961;SDS011;22044;48.298;10.008;2023-03-04T08:21:38;73.80;;;45.23;;
35961;SDS011;22044;48.298;10.008;2023-03-04T08:24:24;72.97;;;44.43;;
35961;SDS011;22044;48.298;10.008;2023-03-04T08:27:10;75.20;;;46.77;;
35961;SDS011;22044;48.298;10.008;2023-03-04T08:29:55;79.73;;;46.57;;
35961;SDS011;22044;48.298;10.008;2023-03-04T08:32:42;69.13;;;44.33;;
35961;SDS011;22044;48.298;10.008;2023-03-04T08:35:28;71.77;;;44.73;;
35961;SDS011;22044;48.298;10.008;2023-03-04T08:38:14;64.33;;;40.90;;
35961;SDS011;22044;48.298;10.008;2023-03-04T08:40:59;71.00;;;43.13;;
35961;SDS011;22044;48.298;10.008;2023-03-04T08:43:46;64.30;;;40.17;;
35961;SDS011;22044;48.298;10.008;2023-03-04T08:46:32;59.43;;;38.20;;
35961;SDS011;22044;48.298;10.008;2023-03-04T08:49:19;61.17;;;36.97;;
35961;SDS011;22044;48.298;10.008;2023-03-04T08:52:04;59.10;;;36.93;;
35961;SDS011;22044;48.298;10.008;2023-03-04T08:54:50;59.10;;;36.47;;
35961;SDS011;22044;48.298;10.008;2023-03-04T08:57:36;56.10;;;34.53;;
35961;SDS011;22044;48.298;10.008;2023-03-04T09:00:21;51.97;;;31.97;;
35961;SDS011;22044;48.298;10.008;2023-03-04T09:03:07;48.93;;;31.67;;
35961;SDS011;22044;48.298;10.008;2023-03-04T09:05:55;57.83;;;34.63;;
35961;SDS011;22044;48.298;10.008;2023-03-04T09:08:40;49.57;;;33.77;;
35961;SDS011;22044;48.298;10.008;2023-03-04T09:11:26;56.50;;;32.97;;
35961;SDS011;22044;48.298;10.008;2023-03-04T09:14:11;54.40;;;32.23;;
35961;SDS011;22044;48.298;10.008;2023-03-04T09:16:57;47.40;;;31.47;;
35961;SDS011;22044;48.298;10.008;2023-03-04T09:19:44;47.67;;;29.10;;
35961;SDS011;22044;48.298;10.008;2023-03-04T09:22:30;40.83;;;26.13;;
35961;SDS011;22044;48.298;10.008;2023-03-04T09:25:16;46.53;;;28.63;;
35961;SDS011;22044;48.298;10.008;2023-03-04T09:28:02;39.47;;;24.93;;
35961;SDS011;22044;48.298;10.008;2023-03-04T09:30:52;48.57;;;26.13;;
35961;SDS011;22044;48.298;10.008;2023-03-04T09:33:38;39.37;;;25.20;;
35961;SDS011;22044;48.298;10.008;2023-03-04T09:36:25;36.97;;;24.37;;
35961;SDS011;22044;48.298;10.008;2023-03-04T09:39:12;36.57;;;23.33;;
35961;SDS011;22044;48.298;10.008;2023-03-04T09:41:58;41.43;;;23.00;;
35961;SDS011;22044;48.298;10.008;2023-03-04T09:44:44;32.27;;;22.30;;
35961;SDS011;22044;48.298;10.008;2023-03-04T09:47:31;34.70;;;21.93;;
35961;SDS011;22044;48.298;10.008;2023-03-04T09:50:18;38.57;;;24.33;;
35961;SDS011;22044;48.298;10.008;2023-03-04T09:53:05;41.73;;;25.70;;
35961;SDS011;22044;48.298;10.008;2023-03-04T09:55:58;36.17;;;23.87;;
35961;SDS011;22044;48.298;10.008;2023-03-04T09:58:49;38.23;;;23.13;;
35961;SDS011;22044;48.298;10.008;2023-03-04T10:01:41;39.53;;;24.77;;
35961;SDS011;22044;48.298;10.008;2023-03-04T10:04:33;36.90;;;24.13;;
35961;SDS011;22044;48.298;10.008;2023-03-04T10:07:23;35.17;;;24.00;;
35961;SDS011;22044;48.298;10.008;2023-03-04T10:10:13;40.17;;;23.57;;
35961;SDS011;22044;48.298;10.008;2023-03-04T10:13:03;35.07;;;23.53;;
35961;SDS011;22044;48.298;10.008;2023-03-04T10:15:55;39.13;;;25.20;;
35961;SDS011;22044;48.298;10.008;2023-03-04T10:18:43;37.20;;;24.60;;
35961;SDS011;22044;48.298;10.008;2023-03-04T10:21:34;39.70;;;25.43;;
35961;SDS011;22044;48.298;10.008;2023-03-04T10:24:25;38.07;;;25.60;;
35961;SDS011;22044;48.298;10.008;2023-03-04T10:27:12;38.33;;;25.27;;
35961;SDS011;22044;48.298;10.008;2023-03-04T10:30:02;40.77;;;26.73;;
35961;SDS011;22044;48.298;10.008;2023-03-04T10:32:50;37.40;;;25.93;;
35961;SDS011;22044;48.298;10.008;2023-03-04T10:35:36;40.57;;;27.00;;
35961;SDS011;22044;48.298;10.008;2023-03-04T10:38:23;43.07;;;26.70;;
35961;SDS011;22044;48.298;10.008;2023-03-04T10:41:12;41.73;;;28.17;;
35961;SDS011;22044;48.298;10.008;2023-03-04T10:44:02;39.80;;;27.00;;
35961;SDS011;22044;48.298;10.008;2023-03-04T10:46:57;40.47;;;25.90;;
35961;SDS011;22044;48.298;10.008;2023-03-04T10:49:49;48.37;;;27.20;;
35961;SDS011;22044;48.298;10.008;2023-03-04T10:52:37;41.87;;;26.80;;
35961;SDS011;22044;48.298;10.008;2023-03-04T10:55:26;38.90;;;25.43;;
35961;SDS011;22044;48.298;10.008;2023-03-04T10:58:13;43.10;;;26.93;;
35961;SDS011;22044;48.298;10.008;2023-03-04T11:01:02;41.07;;;26.33;;
35961;SDS011;22044;48.298;10.008;2023-03-04T11:03:50;39.77;;;26.83;;
35961;SDS011;22044;48.298;10.008;2023-03-04T11:06:39;42.70;;;27.17;;
35961;SDS011;22044;48.298;10.008;2023-03-04T11:09:25;40.87;;;26.77;;
35961;SDS011;22044;48.298;10.008;2023-03-04T11:12:13;42.10;;;27.40;;
35961;SDS011;22044;48.298;10.008;2023-03-04T11:15:01;44.03;;;27.03;;
35961;SDS011;22044;48.298;10.008;2023-03-04T11:17:47;39.63;;;26.93;;
35961;SDS011;22044;48.298;10.008;2023-03-04T11:20:38;40.70;;;27.33;;
35961;SDS011;22044;48.298;10.008;2023-03-04T11:23:27;46.00;;;29.03;;
35961;SDS011;22044;48.298;10.008;2023-03-04T11:26:20;44.03;;;28.63;;
35961;SDS011;22044;48.298;10.008;2023-03-04T11:29:12;50.13;;;30.33;;
35961;SDS011;22044;48.298;10.008;2023-03-04T11:32:02;48.63;;;30.43;;
35961;SDS011;22044;48.298;10.008;2023-03-04T11:34:54;49.17;;;30.57;;
35961;SDS011;22044;48.298;10.008;2023-03-04T11:37:46;44.50;;;27.10;;
35961;SDS011;22044;48.298;10.008;2023-03-04T11:40:38;43.63;;;27.77;;
35961;SDS011;22044;48.298;10.008;2023-03-04T11:43:29;43.03;;;28.30;;
35961;SDS011;22044;48.298;10.008;2023-03-04T11:49:49;42.70;;;25.73;;
35961;SDS011;22044;48.298;10.008;2023-03-04T11:56:10;39.10;;;24.77;;
35961;SDS011;22044;48.298;10.008;2023-03-04T11:59:23;40.73;;;25.73;;
35961;SDS011;22044;48.298;10.008;2023-03-04T12:02:17;40.83;;;25.43;;
35961;SDS011;22044;48.298;10.008;2023-03-04T12:05:25;37.53;;;24.80;;
35961;SDS011;22044;48.298;10.008;2023-03-04T12:08:29;40.83;;;25.27;;
35961;SDS011;22044;48.298;10.008;2023-03-04T12:11:27;39.67;;;23.43;;
35961;SDS011;22044;48.298;10.008;2023-03-04T12:14:24;43.33;;;24.00;;
35961;SDS011;22044;48.298;10.008;2023-03-04T12:17:21;36.70;;;23.87;;
35961;SDS011;22044;48.298;10.008;2023-03-04T12:23:41;37.60;;;24.27;;
35961;SDS011;22044;48.298;10.008;2023-03-04T12:26:38;41.17;;;24.53;;
35961;SDS011;22044;48.298;10.008;2023-03-04T12:29:28;39.83;;;25.70;;
35961;SDS011;22044;48.298;10.008;2023-03-04T12:32:21;42.53;;;25.97;;
35961;SDS011;22044;48.298;10.008;2023-03-04T12:35:18;38.20;;;24.27;;
35961;SDS011;22044;48.298;10.008;2023-03-04T12:38:29;41.70;;;25.40;;
35961;SDS011;22044;48.298;10.008;2023-03-04T12:41:31;38.57;;;24.50;;
35961;SDS011;22044;48.298;10.008;2023-03-04T12:44:25;42.50;;;24.20;;
35961;SDS011;22044;48.298;10.008;2023-03-04T12:47:22;39.80;;;23.30;;
35961;SDS011;22044;48.298;10.008;2023-03-04T12:50:21;44.57;;;24.47;;
35961;SDS011;22044;48.298;10.008;2023-03-04T12:53:16;35.47;;;22.37;;
35961;SDS011;22044;48.298;10.008;2023-03-04T12:56:08;36.33;;;21.70;;
35961;SDS011;22044;48.298;10.008;2023-03-04T12:59:11;36.87;;;22.20;;
35961;SDS011;22044;48.298;10.008;2023-03-04T13:02:01;35.20;;;21.57;;
35961;SDS011;22044;48.298;10.008;2023-03-04T13:05:06;35.30;;;22.17;;
35961;SDS011;22044;48.298;10.008;2023-03-04T13:08:09;36.20;;;20.60;;
35961;SDS011;22044;48.298;10.008;2023-03-04T13:11:02;32.33;;;20.33;;
35961;SDS011;22044;48.298;10.008;2023-03-04T13:14:23;32.50;;;21.37;;
35961;SDS011;22044;48.298;10.008;2023-03-04T13:20:23;31.83;;;19.63;;
35961;SDS011;22044;48.298;10.008;2023-03-04T13:23:22;30.40;;;19.27;;
35961;SDS011;22044;48.298;10.008;2023-03-04T13:26:22;34.63;;;20.10;;
35961;SDS011;22044;48.298;10.008;2023-03-04T13:29:33;33.30;;;20.23;;
35961;SDS011;22044;48.298;10.008;2023-03-04T13:32:33;32.23;;;19.80;;
35961;SDS011;22044;48.298;10.008;2023-03-04T13:38:33;30.83;;;19.23;;
35961;SDS011;22044;48.298;10.008;2023-03-04T13:41:21;27.47;;;17.63;;
35961;SDS011;22044;48.298;10.008;2023-03-04T13:44:30;31.87;;;18.90;;
35961;SDS011;22044;48.298;10.008;2023-03-04T13:47:43;26.93;;;16.77;;
35961;SDS011;22044;48.298;10.008;2023-03-04T13:50:34;28.00;;;17.23;;
35961;SDS011;22044;48.298;10.008;2023-03-04T13:56:28;33.30;;;19.17;;
35961;SDS011;22044;48.298;10.008;2023-03-04T13:59:24;30.07;;;17.53;;
35961;SDS011;22044;48.298;10.008;2023-03-04T14:02:13;28.13;;;18.10;;
35961;SDS011;22044;48.298;10.008;2023-03-04T14:05:05;29.33;;;18.13;;
35961;SDS011;22044;48.298;10.008;2023-03-04T14:07:51;32.03;;;18.90;;
35961;SDS011;22044;48.298;10.008;2023-03-04T14:10:37;29.17;;;18.20;;
35961;SDS011;22044;48.298;10.008;2023-03-04T14:13:23;33.33;;;18.90;;
35961;SDS011;22044;48.298;10.008;2023-03-04T14:16:10;29.30;;;18.20;;
35961;SDS011;22044;48.298;10.008;2023-03-04T14:18:57;32.83;;;20.00;;
35961;SDS011;22044;48.298;10.008;2023-03-04T14:21:46;27.90;;;17.47;;
35961;SDS011;22044;48.298;10.008;2023-03-04T14:24:32;27.63;;;17.20;;
35961;SDS011;22044;48.298;10.008;2023-03-04T14:27:18;26.33;;;16.70;;
35961;SDS011;22044;48.298;10.008;2023-03-04T14:30:04;31.27;;;17.97;;
35961;SDS011;22044;48.298;10.008;2023-03-04T14:32:52;31.90;;;18.13;;
35961;SDS011;22044;48.298;10.008;2023-03-04T14:35:44;29.27;;;18.17;;
35961;SDS011;22044;48.298;10.008;2023-03-04T14:38:32;26.87;;;18.10;;
35961;SDS011;22044;48.298;10.008;2023-03-04T14:41:23;28.30;;;18.57;;
35961;SDS011;22044;48.298;10.008;2023-03-04T14:44:12;30.67;;;18.90;;
35961;SDS011;22044;48.298;10.008;2023-03-04T14:47:08;26.33;;;17.93;;
35961;SDS011;22044;48.298;10.008;2023-03-04T14:50:00;30.63;;;18.83;;
35961;SDS011;22044;48.298;10.008;2023-03-04T14:52:49;27.50;;;17.67;;
35961;SDS011;22044;48.298;10.008;2023-03-04T14:55:55;26.93;;;19.17;;
35961;SDS011;22044;48.298;10.008;2023-03-04T14:58:50;29.00;;;17.67;;
35961;SDS011;22044;48.298;10.008;2023-03-04T15:01:37;32.97;;;19.43;;
35961;SDS011;22044;48.298;10.008;2023-03-04T15:04:23;31.90;;;20.90;;
35961;SDS011;22044;48.298;10.008;2023-03-04T15:07:11;35.97;;;21.97;;
35961;SDS011;22044;48.298;10.008;2023-03-04T15:10:00;29.87;;;20.70;;
35961;SDS011;22044;48.298;10.008;2023-03-04T15:12:54;36.83;;;21.03;;
35961;SDS011;22044;48.298;10.008;2023-03-04T15:15:43;36.77;;;21.30;;
35961;SDS011;22044;48.298;10.008;2023-03-04T15:18:31;32.03;;;20.17;;
35961;SDS011;22044;48.298;10.008;2023-03-04T15:21:28;31.47;;;20.33;;
35961;SDS011;22044;48.298;10.008;2023-03-04T15:24:19;35.87;;;22.43;;
35961;SDS011;22044;48.298;10.008;2023-03-04T15:27:07;34.13;;;22.53;;
35961;SDS011;22044;48.298;10.008;2023-03-04T15:29:56;35.73;;;22.10;;
35961;SDS011;22044;48.298;10.008;2023-03-04T15:32:44;33.97;;;21.97;;
35961;SDS011;22044;48.298;10.008;2023-03-04T15:35:30;34.30;;;22.40;;
35961;SDS011;22044;48.298;10.008;2023-03-04T15:38:16;35.80;;;23.00;;
35961;SDS011;22044;48.298;10.008;2023-03-04T15:41:02;40.73;;;23.37;;
35961;SDS011;22044;48.298;10.008;2023-03-04T15:43:48;36.53;;;22.97;;
35961;SDS011;22044;48.298;10.008;2023-03-04T15:46:36;36.23;;;23.30;;
35961;SDS011;22044;48.298;10.008;2023-03-04T15:49:21;41.77;;;24.20;;
35961;SDS011;22044;48.298;10.008;2023-03-04T15:52:10;40.27;;;25.37;;
35961;SDS011;22044;48.298;10.008;2023-03-04T15:54:59;43.23;;;26.37;;
35961;SDS011;22044;48.298;10.008;2023-03-04T15:57:45;44.77;;;26.80;;
35961;SDS011;22044;48.298;10.008;2023-03-04T16:00:31;44.03;;;27.40;;
35961;SDS011;22044;48.298;10.008;2023-03-04T16:03:19;40.33;;;25.87;;
35961;SDS011;22044;48.298;10.008;2023-03-04T16:06:06;48.30;;;27.70;;
35961;SDS011;22044;48.298;10.008;2023-03-04T16:08:53;44.50;;;27.70;;
35961;SDS011;22044;48.298;10.008;2023-03-04T16:11:41;48.00;;;27.60;;
35961;SDS011;22044;48.298;10.008;2023-03-04T16:14:30;47.13;;;28.10;;
35961;SDS011;22044;48.298;10.008;2023-03-04T16:17:15;48.30;;;29.17;;
35961;SDS011;22044;48.298;10.008;2023-03-04T16:20:02;45.47;;;28.13;;
35961;SDS011;22044;48.298;10.008;2023-03-04T16:22:50;46.17;;;29.67;;
35961;SDS011;22044;48.298;10.008;2023-03-04T16:25:38;47.63;;;28.40;;
35961;SDS011;22044;48.298;10.008;2023-03-04T16:28:23;49.33;;;30.40;;
35961;SDS011;22044;48.298;10.008;2023-03-04T16:31:09;48.70;;;28.93;;